sensor_id;sensor_type;location;lat;lon;timestamp;P1;durP1;ratioP1;P2;durP2;ratioP2
30697;SDS011;17448;47.200;10.902;2023-03-14T00:01:26;5.03;;;3.33;;
30697;SDS011;17448;47.200;10.902;2023-03-14T00:03:52;6.82;;;3.35;;
30697;SDS011;17448;47.200;10.902;2023-03-14T00:06:18;4.90;;;3.70;;
30697;SDS011;17448;47.200;10.902;2023-03-14T00:08:45;6.50;;;3.13;;
30697;SDS011;17448;47.200;10.902;2023-03-14T00:11:13;5.25;;;3.28;;
30697;SDS011;17448;47.200;10.902;2023-03-14T00:13:39;5.18;;;3.03;;
30697;SDS011;17448;47.200;10.902;2023-03-14T00:16:08;4.30;;;2.83;;
30697;SDS011;17448;47.200;10.902;2023-03-14T00:18:34;5.03;;;2.92;;
30697;SDS011;17448;47.200;10.902;2023-03-14T00:21:00;8.77;;;3.17;;
30697;SDS011;17448;47.200;10.902;2023-03-14T00:23:27;6.90;;;3.40;;
30697;SDS011;17448;47.200;10.902;2023-03-14T00:25:57;5.90;;;2.75;;
30697;SDS011;17448;47.200;10.902;2023-03-14T00:28:24;5.63;;;3.53;;
30697;SDS011;17448;47.200;10.902;2023-03-14T00:30:50;6.45;;;2.85;;
30697;SDS011;17448;47.200;10.902;2023-03-14T00:33:16;5.88;;;3.03;;
30697;SDS011;17448;47.200;10.902;2023-03-14T00:35:42;6.47;;;2.92;;
30697;SDS011;17448;47.200;10.902;2023-03-14T00:38:08;4.00;;;2.45;;
30697;SDS011;17448;47.200;10.902;2023-03-14T00:40:38;6.20;;;3.55;;
30697;SDS011;17448;47.200;10.902;2023-03-14T00:43:04;7.82;;;3.08;;
30697;SDS011;17448;47.200;10.902;2023-03-14T00:45:30;5.40;;;3.33;;
30697;SDS011;17448;47.200;10.902;2023-03-14T00:47:59;4.03;;;2.63;;
30697;SDS011;17448;47.200;10.902;2023-03-14T00:50:25;5.03;;;2.90;;
30697;SDS011;17448;47.200;10.902;2023-03-14T00:52:51;6.97;;;2.92;;
30697;SDS011;17448;47.200;10.902;2023-03-14T00:55:17;5.15;;;2.90;;
30697;SDS011;17448;47.200;10.902;2023-03-14T00:57:43;4.80;;;3.15;;
30697;SDS011;17448;47.200;10.902;2023-03-14T01:00:10;7.00;;;3.33;;
30697;SDS011;17448;47.200;10.902;2023-03-14T01:02:37;6.03;;;3.22;;
30697;SDS011;17448;47.200;10.902;2023-03-14T01:05:04;4.68;;;2.70;;
30697;SDS011;17448;47.200;10.902;2023-03-14T01:07:30;4.93;;;2.28;;
30697;SDS011;17448;47.200;10.902;2023-03-14T01:10:00;8.48;;;2.80;;
30697;SDS011;17448;47.200;10.902;2023-03-14T01:12:27;7.00;;;3.17;;
30697;SDS011;17448;47.200;10.902;2023-03-14T01:14:53;8.82;;;3.30;;
30697;SDS011;17448;47.200;10.902;2023-03-14T01:17:19;4.57;;;3.08;;
30697;SDS011;17448;47.200;10.902;2023-03-14T01:19:45;8.77;;;3.00;;
30697;SDS011;17448;47.200;10.902;2023-03-14T01:22:11;6.75;;;3.47;;
30697;SDS011;17448;47.200;10.902;2023-03-14T01:24:37;4.85;;;3.05;;
30697;SDS011;17448;47.200;10.902;2023-03-14T01:27:04;7.35;;;2.70;;
30697;SDS011;17448;47.200;10.902;2023-03-14T01:29:30;7.25;;;2.85;;
30697;SDS011;17448;47.200;10.902;2023-03-14T01:31:56;6.25;;;2.88;;
30697;SDS011;17448;47.200;10.902;2023-03-14T01:34:22;4.00;;;2.60;;
30697;SDS011;17448;47.200;10.902;2023-03-14T01:36:49;4.38;;;3.05;;
30697;SDS011;17448;47.200;10.902;2023-03-14T01:39:15;8.38;;;3.50;;
30697;SDS011;17448;47.200;10.902;2023-03-14T01:41:42;6.50;;;3.05;;
30697;SDS011;17448;47.200;10.902;2023-03-14T01:44:11;6.22;;;3.05;;
30697;SDS011;17448;47.200;10.902;2023-03-14T01:46:41;7.45;;;2.90;;
30697;SDS011;17448;47.200;10.902;2023-03-14T01:54:10;5.00;;;3.17;;
30697;SDS011;17448;47.200;10.902;2023-03-14T01:56:37;5.15;;;3.20;;
30697;SDS011;17448;47.200;10.902;2023-03-14T01:59:05;6.25;;;3.17;;
30697;SDS011;17448;47.200;10.902;2023-03-14T02:01:33;9.90;;;3.53;;
30697;SDS011;17448;47.200;10.902;2023-03-14T02:04:01;7.90;;;3.10;;
30697;SDS011;17448;47.200;10.902;2023-03-14T02:06:30;10.38;;;3.03;;
30697;SDS011;17448;47.200;10.902;2023-03-14T02:09:00;4.20;;;2.70;;
30697;SDS011;17448;47.200;10.902;2023-03-14T02:11:29;8.27;;;3.25;;
30697;SDS011;17448;47.200;10.902;2023-03-14T02:14:01;9.55;;;4.45;;
30697;SDS011;17448;47.200;10.902;2023-03-14T02:16:46;7.30;;;3.40;;
30697;SDS011;17448;47.200;10.902;2023-03-14T02:19:30;7.72;;;3.13;;
30697;SDS011;17448;47.200;10.902;2023-03-14T02:22:20;5.25;;;3.55;;
30697;SDS011;17448;47.200;10.902;2023-03-14T02:27:43;13.98;;;3.60;;
30697;SDS011;17448;47.200;10.902;2023-03-14T02:30:11;10.85;;;3.40;;
30697;SDS011;17448;47.200;10.902;2023-03-14T02:32:40;5.40;;;2.88;;
30697;SDS011;17448;47.200;10.902;2023-03-14T02:35:08;6.05;;;3.70;;
30697;SDS011;17448;47.200;10.902;2023-03-14T02:37:41;7.10;;;3.55;;
30697;SDS011;17448;47.200;10.902;2023-03-14T02:40:08;7.72;;;3.60;;
30697;SDS011;17448;47.200;10.902;2023-03-14T02:42:35;7.20;;;3.38;;
30697;SDS011;17448;47.200;10.902;2023-03-14T02:47:31;8.30;;;3.97;;
30697;SDS011;17448;47.200;10.902;2023-03-14T02:49:59;7.63;;;3.58;;
30697;SDS011;17448;47.200;10.902;2023-03-14T02:52:28;12.43;;;3.72;;
30697;SDS011;17448;47.200;10.902;2023-03-14T02:54:58;14.95;;;3.83;;
30697;SDS011;17448;47.200;10.902;2023-03-14T02:57:24;5.65;;;3.40;;
30697;SDS011;17448;47.200;10.902;2023-03-14T02:59:50;7.38;;;3.47;;
30697;SDS011;17448;47.200;10.902;2023-03-14T03:02:19;9.98;;;3.80;;
30697;SDS011;17448;47.200;10.902;2023-03-14T03:04:45;8.68;;;3.50;;
30697;SDS011;17448;47.200;10.902;2023-03-14T03:07:11;8.63;;;3.75;;
30697;SDS011;17448;47.200;10.902;2023-03-14T03:09:37;9.00;;;4.65;;
30697;SDS011;17448;47.200;10.902;2023-03-14T03:12:04;9.77;;;4.10;;
30697;SDS011;17448;47.200;10.902;2023-03-14T03:14:31;8.60;;;3.83;;
30697;SDS011;17448;47.200;10.902;2023-03-14T03:17:00;7.28;;;3.97;;
30697;SDS011;17448;47.200;10.902;2023-03-14T03:19:26;6.47;;;3.40;;
30697;SDS011;17448;47.200;10.902;2023-03-14T03:21:53;9.23;;;4.20;;
30697;SDS011;17448;47.200;10.902;2023-03-14T03:24:19;7.88;;;3.50;;
30697;SDS011;17448;47.200;10.902;2023-03-14T03:26:45;8.23;;;4.25;;
30697;SDS011;17448;47.200;10.902;2023-03-14T03:29:11;7.68;;;4.50;;
30697;SDS011;17448;47.200;10.902;2023-03-14T03:31:38;9.35;;;4.90;;
30697;SDS011;17448;47.200;10.902;2023-03-14T03:34:04;9.80;;;4.55;;
30697;SDS011;17448;47.200;10.902;2023-03-14T03:36:30;7.47;;;5.53;;
30697;SDS011;17448;47.200;10.902;2023-03-14T03:38:58;10.10;;;4.57;;
30697;SDS011;17448;47.200;10.902;2023-03-14T03:41:24;9.05;;;4.93;;
30697;SDS011;17448;47.200;10.902;2023-03-14T03:43:51;10.77;;;4.97;;
30697;SDS011;17448;47.200;10.902;2023-03-14T03:46:19;10.55;;;4.18;;
30697;SDS011;17448;47.200;10.902;2023-03-14T03:48:45;9.80;;;4.30;;
30697;SDS011;17448;47.200;10.902;2023-03-14T03:51:12;7.60;;;4.63;;
30697;SDS011;17448;47.200;10.902;2023-03-14T03:53:39;6.75;;;4.20;;
30697;SDS011;17448;47.200;10.902;2023-03-14T03:56:09;7.10;;;4.38;;
30697;SDS011;17448;47.200;10.902;2023-03-14T03:58:36;9.25;;;4.63;;
30697;SDS011;17448;47.200;10.902;2023-03-14T04:01:04;9.07;;;4.53;;
30697;SDS011;17448;47.200;10.902;2023-03-14T04:03:32;9.20;;;4.47;;
30697;SDS011;17448;47.200;10.902;2023-03-14T04:06:02;11.75;;;5.35;;
30697;SDS011;17448;47.200;10.902;2023-03-14T04:08:30;7.10;;;4.50;;
30697;SDS011;17448;47.200;10.902;2023-03-14T04:11:00;12.02;;;4.72;;
30697;SDS011;17448;47.200;10.902;2023-03-14T04:13:43;12.18;;;5.45;;
30697;SDS011;17448;47.200;10.902;2023-03-14T04:16:22;9.73;;;4.93;;
30697;SDS011;17448;47.200;10.902;2023-03-14T04:18:51;11.63;;;4.93;;
30697;SDS011;17448;47.200;10.902;2023-03-14T04:21:20;12.85;;;5.13;;
30697;SDS011;17448;47.200;10.902;2023-03-14T04:23:49;6.82;;;4.60;;
30697;SDS011;17448;47.200;10.902;2023-03-14T04:26:17;12.75;;;4.40;;
30697;SDS011;17448;47.200;10.902;2023-03-14T04:28:43;9.48;;;4.82;;
30697;SDS011;17448;47.200;10.902;2023-03-14T04:31:14;7.85;;;5.18;;
30697;SDS011;17448;47.200;10.902;2023-03-14T04:33:40;14.35;;;6.35;;
30697;SDS011;17448;47.200;10.902;2023-03-14T04:36:07;14.18;;;7.63;;
30697;SDS011;17448;47.200;10.902;2023-03-14T04:38:34;16.90;;;7.60;;
30697;SDS011;17448;47.200;10.902;2023-03-14T04:41:01;12.95;;;6.80;;
30697;SDS011;17448;47.200;10.902;2023-03-14T04:43:30;12.18;;;6.18;;
30697;SDS011;17448;47.200;10.902;2023-03-14T04:46:08;10.80;;;5.80;;
30697;SDS011;17448;47.200;10.902;2023-03-14T04:48:34;8.77;;;5.22;;
30697;SDS011;17448;47.200;10.902;2023-03-14T04:51:01;13.32;;;6.60;;
30697;SDS011;17448;47.200;10.902;2023-03-14T04:53:30;11.20;;;5.63;;
30697;SDS011;17448;47.200;10.902;2023-03-14T04:55:57;11.20;;;5.50;;
30697;SDS011;17448;47.200;10.902;2023-03-14T04:58:30;13.82;;;6.18;;
30697;SDS011;17448;47.200;10.902;2023-03-14T05:01:04;9.20;;;5.80;;
30697;SDS011;17448;47.200;10.902;2023-03-14T05:04:00;12.57;;;5.93;;
30697;SDS011;17448;47.200;10.902;2023-03-14T05:06:55;9.95;;;6.70;;
30697;SDS011;17448;47.200;10.902;2023-03-14T05:09:24;9.50;;;6.03;;
30697;SDS011;17448;47.200;10.902;2023-03-14T05:12:12;9.13;;;5.20;;
30697;SDS011;17448;47.200;10.902;2023-03-14T05:15:00;11.48;;;5.93;;
30697;SDS011;17448;47.200;10.902;2023-03-14T05:17:40;6.03;;;4.30;;
30697;SDS011;17448;47.200;10.902;2023-03-14T05:20:35;8.70;;;4.18;;
30697;SDS011;17448;47.200;10.902;2023-03-14T05:23:34;8.68;;;4.07;;
30697;SDS011;17448;47.200;10.902;2023-03-14T05:26:08;8.82;;;3.67;;
30697;SDS011;17448;47.200;10.902;2023-03-14T05:28:46;9.77;;;3.88;;
30697;SDS011;17448;47.200;10.902;2023-03-14T05:31:51;9.93;;;3.50;;
30697;SDS011;17448;47.200;10.902;2023-03-14T05:34:31;5.85;;;3.78;;
30697;SDS011;17448;47.200;10.902;2023-03-14T05:37:23;5.50;;;3.20;;
30697;SDS011;17448;47.200;10.902;2023-03-14T05:40:02;10.07;;;3.83;;
30697;SDS011;17448;47.200;10.902;2023-03-14T05:42:38;4.85;;;3.03;;
30697;SDS011;17448;47.200;10.902;2023-03-14T05:45:42;5.35;;;2.83;;
30697;SDS011;17448;47.200;10.902;2023-03-14T05:48:38;5.43;;;3.13;;
30697;SDS011;17448;47.200;10.902;2023-03-14T05:51:27;7.90;;;2.40;;
30697;SDS011;17448;47.200;10.902;2023-03-14T05:54:02;7.03;;;2.92;;
30697;SDS011;17448;47.200;10.902;2023-03-14T05:56:47;9.27;;;2.63;;
30697;SDS011;17448;47.200;10.902;2023-03-14T05:59:32;4.75;;;2.40;;
30697;SDS011;17448;47.200;10.902;2023-03-14T06:02:21;5.82;;;2.45;;
30697;SDS011;17448;47.200;10.902;2023-03-14T06:05:00;5.18;;;2.92;;
30697;SDS011;17448;47.200;10.902;2023-03-14T06:07:27;7.05;;;3.63;;
30697;SDS011;17448;47.200;10.902;2023-03-14T06:09:54;4.82;;;2.83;;
30697;SDS011;17448;47.200;10.902;2023-03-14T06:12:21;4.82;;;3.20;;
30697;SDS011;17448;47.200;10.902;2023-03-14T06:14:47;5.05;;;3.05;;
30697;SDS011;17448;47.200;10.902;2023-03-14T06:17:14;5.30;;;3.10;;
30697;SDS011;17448;47.200;10.902;2023-03-14T06:19:48;5.70;;;2.95;;
30697;SDS011;17448;47.200;10.902;2023-03-14T06:22:14;6.70;;;3.13;;
30697;SDS011;17448;47.200;10.902;2023-03-14T06:24:40;5.22;;;2.45;;
30697;SDS011;17448;47.200;10.902;2023-03-14T06:27:07;6.78;;;2.72;;
30697;SDS011;17448;47.200;10.902;2023-03-14T06:29:33;7.00;;;3.20;;
30697;SDS011;17448;47.200;10.902;2023-03-14T06:32:01;6.53;;;2.65;;
30697;SDS011;17448;47.200;10.902;2023-03-14T06:34:27;3.08;;;2.38;;
30697;SDS011;17448;47.200;10.902;2023-03-14T06:36:53;4.32;;;1.85;;
30697;SDS011;17448;47.200;10.902;2023-03-14T06:39:19;6.32;;;1.63;;
30697;SDS011;17448;47.200;10.902;2023-03-14T06:41:51;8.27;;;2.22;;
30697;SDS011;17448;47.200;10.902;2023-03-14T06:44:18;9.25;;;2.40;;
30697;SDS011;17448;47.200;10.902;2023-03-14T06:46:44;5.03;;;2.75;;
30697;SDS011;17448;47.200;10.902;2023-03-14T06:49:11;4.10;;;2.60;;
30697;SDS011;17448;47.200;10.902;2023-03-14T06:51:37;6.05;;;2.72;;
30697;SDS011;17448;47.200;10.902;2023-03-14T06:54:05;4.18;;;2.40;;
30697;SDS011;17448;47.200;10.902;2023-03-14T06:56:31;3.88;;;2.38;;
30697;SDS011;17448;47.200;10.902;2023-03-14T06:58:58;4.50;;;2.95;;
30697;SDS011;17448;47.200;10.902;2023-03-14T07:01:28;3.00;;;2.20;;
30697;SDS011;17448;47.200;10.902;2023-03-14T07:04:03;4.50;;;2.58;;
30697;SDS011;17448;47.200;10.902;2023-03-14T07:06:30;4.57;;;1.90;;
30697;SDS011;17448;47.200;10.902;2023-03-14T07:08:56;3.95;;;2.58;;
30697;SDS011;17448;47.200;10.902;2023-03-14T07:11:22;3.17;;;2.50;;
30697;SDS011;17448;47.200;10.902;2023-03-14T07:13:49;6.68;;;2.70;;
30697;SDS011;17448;47.200;10.902;2023-03-14T07:16:15;6.35;;;2.90;;
30697;SDS011;17448;47.200;10.902;2023-03-14T07:18:41;8.10;;;2.63;;
30697;SDS011;17448;47.200;10.902;2023-03-14T07:21:08;2.40;;;1.88;;
30697;SDS011;17448;47.200;10.902;2023-03-14T07:23:36;2.78;;;2.03;;
30697;SDS011;17448;47.200;10.902;2023-03-14T07:26:02;4.25;;;2.35;;
30697;SDS011;17448;47.200;10.902;2023-03-14T07:28:30;2.95;;;2.03;;
30697;SDS011;17448;47.200;10.902;2023-03-14T07:31:04;5.43;;;2.35;;
30697;SDS011;17448;47.200;10.902;2023-03-14T07:33:31;2.83;;;1.98;;
30697;SDS011;17448;47.200;10.902;2023-03-14T07:35:58;2.50;;;2.20;;
30697;SDS011;17448;47.200;10.902;2023-03-14T07:38:24;4.13;;;2.10;;
30697;SDS011;17448;47.200;10.902;2023-03-14T07:41:09;4.93;;;2.50;;
30697;SDS011;17448;47.200;10.902;2023-03-14T07:43:41;6.32;;;2.53;;
30697;SDS011;17448;47.200;10.902;2023-03-14T07:46:07;4.30;;;2.92;;
30697;SDS011;17448;47.200;10.902;2023-03-14T07:48:33;8.05;;;3.45;;
30697;SDS011;17448;47.200;10.902;2023-03-14T07:50:59;4.40;;;3.17;;
30697;SDS011;17448;47.200;10.902;2023-03-14T07:53:25;4.47;;;2.70;;
30697;SDS011;17448;47.200;10.902;2023-03-14T07:55:52;4.35;;;2.67;;
30697;SDS011;17448;47.200;10.902;2023-03-14T07:58:18;4.97;;;2.05;;
30697;SDS011;17448;47.200;10.902;2023-03-14T08:00:44;5.55;;;3.20;;
30697;SDS011;17448;47.200;10.902;2023-03-14T08:03:10;5.53;;;2.42;;
30697;SDS011;17448;47.200;10.902;2023-03-14T08:05:37;4.88;;;2.60;;
30697;SDS011;17448;47.200;10.902;2023-03-14T08:08:04;3.92;;;2.35;;
30697;SDS011;17448;47.200;10.902;2023-03-14T08:10:30;4.18;;;2.67;;
30697;SDS011;17448;47.200;10.902;2023-03-14T08:12:57;5.97;;;2.53;;
30697;SDS011;17448;47.200;10.902;2023-03-14T08:15:23;3.88;;;2.00;;
30697;SDS011;17448;47.200;10.902;2023-03-14T08:17:50;3.25;;;1.70;;
30697;SDS011;17448;47.200;10.902;2023-03-14T08:20:17;2.55;;;1.77;;
30697;SDS011;17448;47.200;10.902;2023-03-14T08:22:44;3.35;;;1.90;;
30697;SDS011;17448;47.200;10.902;2023-03-14T08:25:10;2.65;;;2.00;;
30697;SDS011;17448;47.200;10.902;2023-03-14T08:27:36;4.07;;;2.40;;
30697;SDS011;17448;47.200;10.902;2023-03-14T08:30:07;3.08;;;2.03;;
30697;SDS011;17448;47.200;10.902;2023-03-14T08:32:33;2.20;;;2.00;;
30697;SDS011;17448;47.200;10.902;2023-03-14T08:34:59;2.83;;;2.17;;
30697;SDS011;17448;47.200;10.902;2023-03-14T08:37:25;3.10;;;2.50;;
30697;SDS011;17448;47.200;10.902;2023-03-14T08:39:52;3.67;;;2.45;;
30697;SDS011;17448;47.200;10.902;2023-03-14T08:42:18;2.50;;;1.98;;
30697;SDS011;17448;47.200;10.902;2023-03-14T08:44:44;4.97;;;2.30;;
30697;SDS011;17448;47.200;10.902;2023-03-14T08:47:11;3.05;;;2.20;;
30697;SDS011;17448;47.200;10.902;2023-03-14T08:49:37;4.80;;;2.80;;
30697;SDS011;17448;47.200;10.902;2023-03-14T08:52:03;3.88;;;2.60;;
30697;SDS011;17448;47.200;10.902;2023-03-14T08:54:30;6.38;;;3.47;;
30697;SDS011;17448;47.200;10.902;2023-03-14T08:56:56;5.60;;;3.17;;
30697;SDS011;17448;47.200;10.902;2023-03-14T08:59:22;4.60;;;2.70;;
30697;SDS011;17448;47.200;10.902;2023-03-14T09:01:49;4.35;;;2.72;;
30697;SDS011;17448;47.200;10.902;2023-03-14T09:04:15;4.97;;;1.90;;
30697;SDS011;17448;47.200;10.902;2023-03-14T09:06:41;3.25;;;1.90;;
30697;SDS011;17448;47.200;10.902;2023-03-14T09:09:07;3.13;;;2.25;;
30697;SDS011;17448;47.200;10.902;2023-03-14T09:11:33;3.00;;;1.80;;
30697;SDS011;17448;47.200;10.902;2023-03-14T09:14:00;3.30;;;2.00;;
30697;SDS011;17448;47.200;10.902;2023-03-14T09:16:26;4.25;;;2.20;;
30697;SDS011;17448;47.200;10.902;2023-03-14T09:18:52;2.63;;;2.38;;
30697;SDS011;17448;47.200;10.902;2023-03-14T09:21:20;2.90;;;1.70;;
30697;SDS011;17448;47.200;10.902;2023-03-14T09:23:46;4.75;;;1.92;;
30697;SDS011;17448;47.200;10.902;2023-03-14T09:26:12;1.67;;;1.58;;
30697;SDS011;17448;47.200;10.902;2023-03-14T09:28:38;2.60;;;1.67;;
30697;SDS011;17448;47.200;10.902;2023-03-14T09:31:05;2.90;;;1.70;;
30697;SDS011;17448;47.200;10.902;2023-03-14T09:33:31;2.30;;;1.63;;
30697;SDS011;17448;47.200;10.902;2023-03-14T09:35:58;2.33;;;1.98;;
30697;SDS011;17448;47.200;10.902;2023-03-14T09:38:25;2.50;;;1.90;;
30697;SDS011;17448;47.200;10.902;2023-03-14T09:40:51;4.95;;;2.60;;
30697;SDS011;17448;47.200;10.902;2023-03-14T09:43:18;3.33;;;2.35;;
30697;SDS011;17448;47.200;10.902;2023-03-14T09:45:44;3.78;;;2.45;;
30697;SDS011;17448;47.200;10.902;2023-03-14T09:48:14;4.03;;;2.65;;
30697;SDS011;17448;47.200;10.902;2023-03-14T09:50:45;4.30;;;2.60;;
30697;SDS011;17448;47.200;10.902;2023-03-14T09:53:14;2.20;;;1.80;;
30697;SDS011;17448;47.200;10.902;2023-03-14T09:55:41;2.72;;;2.35;;
30697;SDS011;17448;47.200;10.902;2023-03-14T09:58:15;4.35;;;2.50;;
30697;SDS011;17448;47.200;10.902;2023-03-14T10:00:42;3.13;;;2.30;;
30697;SDS011;17448;47.200;10.902;2023-03-14T10:05:34;3.13;;;1.95;;
30697;SDS011;17448;47.200;10.902;2023-03-14T10:08:00;2.63;;;2.00;;
30697;SDS011;17448;47.200;10.902;2023-03-14T10:10:27;1.67;;;1.45;;
30697;SDS011;17448;47.200;10.902;2023-03-14T10:12:57;1.60;;;1.50;;
30697;SDS011;17448;47.200;10.902;2023-03-14T10:15:25;1.70;;;1.60;;
30697;SDS011;17448;47.200;10.902;2023-03-14T10:17:51;2.92;;;1.60;;
30697;SDS011;17448;47.200;10.902;2023-03-14T10:20:34;1.98;;;1.65;;
30697;SDS011;17448;47.200;10.902;2023-03-14T10:23:02;2.15;;;1.88;;
30697;SDS011;17448;47.200;10.902;2023-03-14T10:25:30;2.70;;;1.70;;
30697;SDS011;17448;47.200;10.902;2023-03-14T10:27:56;1.75;;;1.30;;
30697;SDS011;17448;47.200;10.902;2023-03-14T10:30:30;1.30;;;1.20;;
30697;SDS011;17448;47.200;10.902;2023-03-14T10:33:03;3.20;;;1.90;;
30697;SDS011;17448;47.200;10.902;2023-03-14T10:35:33;2.30;;;1.70;;
30697;SDS011;17448;47.200;10.902;2023-03-14T10:38:00;2.08;;;1.63;;
30697;SDS011;17448;47.200;10.902;2023-03-14T10:40:30;2.15;;;1.63;;
30697;SDS011;17448;47.200;10.902;2023-03-14T10:43:00;2.05;;;1.70;;
30697;SDS011;17448;47.200;10.902;2023-03-14T10:45:42;2.42;;;1.90;;
30697;SDS011;17448;47.200;10.902;2023-03-14T10:51:26;2.03;;;1.70;;
30697;SDS011;17448;47.200;10.902;2023-03-14T10:53:26;1.77;;;1.50;;
30697;SDS011;17448;47.200;10.902;2023-03-14T10:55:52;2.15;;;1.67;;
30697;SDS011;17448;47.200;10.902;2023-03-14T11:00:46;4.97;;;1.83;;
30697;SDS011;17448;47.200;10.902;2023-03-14T11:03:14;5.97;;;1.50;;
30697;SDS011;17448;47.200;10.902;2023-03-14T11:05:46;5.25;;;1.85;;
30697;SDS011;17448;47.200;10.902;2023-03-14T11:10:40;2.45;;;1.48;;
30697;SDS011;17448;47.200;10.902;2023-03-14T11:18:29;2.03;;;1.70;;
30697;SDS011;17448;47.200;10.902;2023-03-14T11:21:02;3.17;;;1.85;;
30697;SDS011;17448;47.200;10.902;2023-03-14T11:23:42;2.40;;;1.80;;
30697;SDS011;17448;47.200;10.902;2023-03-14T11:28:49;7.70;;;2.28;;
30697;SDS011;17448;47.200;10.902;2023-03-14T11:31:20;1.77;;;1.67;;
30697;SDS011;17448;47.200;10.902;2023-03-14T11:36:34;1.70;;;1.50;;
30697;SDS011;17448;47.200;10.902;2023-03-14T11:39:01;1.92;;;1.48;;
30697;SDS011;17448;47.200;10.902;2023-03-14T11:41:32;2.25;;;1.80;;
30697;SDS011;17448;47.200;10.902;2023-03-14T11:43:59;1.70;;;1.60;;
30697;SDS011;17448;47.200;10.902;2023-03-14T11:46:37;2.15;;;1.58;;
30697;SDS011;17448;47.200;10.902;2023-03-14T11:49:06;1.40;;;1.02;;
30697;SDS011;17448;47.200;10.902;2023-03-14T11:51:41;4.95;;;1.65;;
30697;SDS011;17448;47.200;10.902;2023-03-14T11:56:58;1.27;;;1.10;;
30697;SDS011;17448;47.200;10.902;2023-03-14T11:59:23;1.55;;;1.30;;
30697;SDS011;17448;47.200;10.902;2023-03-14T12:01:53;6.25;;;2.78;;
30697;SDS011;17448;47.200;10.902;2023-03-14T12:04:29;1.55;;;1.45;;
30697;SDS011;17448;47.200;10.902;2023-03-14T12:06:57;2.28;;;1.60;;
30697;SDS011;17448;47.200;10.902;2023-03-14T12:09:27;3.33;;;1.58;;
30697;SDS011;17448;47.200;10.902;2023-03-14T12:11:56;3.95;;;1.70;;
30697;SDS011;17448;47.200;10.902;2023-03-14T12:14:25;1.73;;;1.30;;
30697;SDS011;17448;47.200;10.902;2023-03-14T12:16:53;5.43;;;3.42;;
30697;SDS011;17448;47.200;10.902;2023-03-14T12:24:48;2.80;;;1.60;;
30697;SDS011;17448;47.200;10.902;2023-03-14T12:27:37;2.72;;;1.90;;
30697;SDS011;17448;47.200;10.902;2023-03-14T12:30:01;1.85;;;1.60;;
30697;SDS011;17448;47.200;10.902;2023-03-14T12:32:36;2.40;;;1.50;;
30697;SDS011;17448;47.200;10.902;2023-03-14T12:36:03;3.25;;;2.20;;
30697;SDS011;17448;47.200;10.902;2023-03-14T12:37:57;4.13;;;1.90;;
30697;SDS011;17448;47.200;10.902;2023-03-14T12:40:42;3.40;;;2.00;;
30697;SDS011;17448;47.200;10.902;2023-03-14T12:43:29;2.03;;;1.55;;
30697;SDS011;17448;47.200;10.902;2023-03-14T12:48:42;2.22;;;1.90;;
30697;SDS011;17448;47.200;10.902;2023-03-14T12:51:13;2.78;;;1.60;;
30697;SDS011;17448;47.200;10.902;2023-03-14T12:54:01;2.15;;;1.80;;
30697;SDS011;17448;47.200;10.902;2023-03-14T12:59:28;3.00;;;1.92;;
30697;SDS011;17448;47.200;10.902;2023-03-14T13:01:55;1.90;;;1.55;;
30697;SDS011;17448;47.200;10.902;2023-03-14T13:04:35;3.47;;;1.77;;
30697;SDS011;17448;47.200;10.902;2023-03-14T13:07:03;1.60;;;1.17;;
30697;SDS011;17448;47.200;10.902;2023-03-14T13:12:00;1.98;;;1.52;;
30697;SDS011;17448;47.200;10.902;2023-03-14T13:14:28;4.07;;;1.20;;
30697;SDS011;17448;47.200;10.902;2023-03-14T13:16:54;1.73;;;1.48;;
30697;SDS011;17448;47.200;10.902;2023-03-14T13:19:21;3.70;;;1.40;;
30697;SDS011;17448;47.200;10.902;2023-03-14T13:21:49;1.80;;;1.40;;
30697;SDS011;17448;47.200;10.902;2023-03-14T13:24:23;1.50;;;1.38;;
30697;SDS011;17448;47.200;10.902;2023-03-14T13:26:51;1.92;;;1.50;;
30697;SDS011;17448;47.200;10.902;2023-03-14T13:29:25;1.50;;;1.35;;
30697;SDS011;17448;47.200;10.902;2023-03-14T13:31:52;1.45;;;1.35;;
30697;SDS011;17448;47.200;10.902;2023-03-14T13:34:19;2.88;;;1.45;;
30697;SDS011;17448;47.200;10.902;2023-03-14T13:36:46;5.28;;;2.15;;
30697;SDS011;17448;47.200;10.902;2023-03-14T13:39:19;4.03;;;1.23;;
30697;SDS011;17448;47.200;10.902;2023-03-14T13:41:47;3.05;;;1.30;;
30697;SDS011;17448;47.200;10.902;2023-03-14T13:44:15;3.30;;;1.80;;
30697;SDS011;17448;47.200;10.902;2023-03-14T13:46:42;1.38;;;1.27;;
30697;SDS011;17448;47.200;10.902;2023-03-14T13:49:13;1.60;;;1.50;;
30697;SDS011;17448;47.200;10.902;2023-03-14T13:51:42;4.68;;;2.30;;
30697;SDS011;17448;47.200;10.902;2023-03-14T13:54:18;2.90;;;2.03;;
30697;SDS011;17448;47.200;10.902;2023-03-14T13:56:45;2.95;;;2.08;;
30697;SDS011;17448;47.200;10.902;2023-03-14T14:01:47;3.80;;;2.70;;
30697;SDS011;17448;47.200;10.902;2023-03-14T14:04:15;3.65;;;2.60;;
30697;SDS011;17448;47.200;10.902;2023-03-14T14:07:00;3.50;;;2.78;;
30697;SDS011;17448;47.200;10.902;2023-03-14T14:09:27;3.30;;;2.42;;
30697;SDS011;17448;47.200;10.902;2023-03-14T14:12:02;2.20;;;1.60;;
30697;SDS011;17448;47.200;10.902;2023-03-14T14:14:31;7.95;;;2.85;;
30697;SDS011;17448;47.200;10.902;2023-03-14T14:16:59;5.28;;;2.17;;
30697;SDS011;17448;47.200;10.902;2023-03-14T14:19:27;3.67;;;2.03;;
30697;SDS011;17448;47.200;10.902;2023-03-14T14:21:53;3.15;;;1.92;;
30697;SDS011;17448;47.200;10.902;2023-03-14T14:24:20;2.58;;;2.05;;
30697;SDS011;17448;47.200;10.902;2023-03-14T14:26:51;2.70;;;2.00;;
30697;SDS011;17448;47.200;10.902;2023-03-14T14:29:26;3.78;;;2.58;;
30697;SDS011;17448;47.200;10.902;2023-03-14T14:34:44;5.22;;;2.28;;
30697;SDS011;17448;47.200;10.902;2023-03-14T14:39:42;4.43;;;1.92;;
30697;SDS011;17448;47.200;10.902;2023-03-14T14:42:15;13.55;;;2.38;;
30697;SDS011;17448;47.200;10.902;2023-03-14T14:44:42;5.00;;;1.60;;
30697;SDS011;17448;47.200;10.902;2023-03-14T14:47:12;4.20;;;1.70;;
30697;SDS011;17448;47.200;10.902;2023-03-14T14:49:39;3.38;;;2.08;;
30697;SDS011;17448;47.200;10.902;2023-03-14T14:52:20;6.28;;;1.75;;
30697;SDS011;17448;47.200;10.902;2023-03-14T14:54:47;2.50;;;1.58;;
30697;SDS011;17448;47.200;10.902;2023-03-14T14:57:19;2.47;;;1.55;;
30697;SDS011;17448;47.200;10.902;2023-03-14T14:59:47;12.07;;;2.30;;
30697;SDS011;17448;47.200;10.902;2023-03-14T15:05:19;4.18;;;1.77;;
30697;SDS011;17448;47.200;10.902;2023-03-14T15:07:46;4.10;;;1.38;;
30697;SDS011;17448;47.200;10.902;2023-03-14T15:10:17;2.08;;;1.55;;
30697;SDS011;17448;47.200;10.902;2023-03-14T15:12:46;1.80;;;1.55;;
30697;SDS011;17448;47.200;10.902;2023-03-14T15:15:15;2.72;;;2.25;;
30697;SDS011;17448;47.200;10.902;2023-03-14T15:17:46;5.47;;;1.98;;
30697;SDS011;17448;47.200;10.902;2023-03-14T15:20:14;2.63;;;1.80;;
30697;SDS011;17448;47.200;10.902;2023-03-14T15:22:41;4.35;;;1.58;;
30697;SDS011;17448;47.200;10.902;2023-03-14T15:25:08;1.70;;;1.20;;
30697;SDS011;17448;47.200;10.902;2023-03-14T15:27:35;1.27;;;0.90;;
30697;SDS011;17448;47.200;10.902;2023-03-14T15:30:01;4.15;;;1.38;;
30697;SDS011;17448;47.200;10.902;2023-03-14T15:32:28;6.55;;;1.95;;
30697;SDS011;17448;47.200;10.902;2023-03-14T15:34:54;1.02;;;0.85;;
30697;SDS011;17448;47.200;10.902;2023-03-14T15:37:20;1.40;;;0.98;;
30697;SDS011;17448;47.200;10.902;2023-03-14T15:39:47;1.98;;;0.70;;
30697;SDS011;17448;47.200;10.902;2023-03-14T15:42:13;1.60;;;0.80;;
30697;SDS011;17448;47.200;10.902;2023-03-14T15:44:39;1.45;;;1.27;;
30697;SDS011;17448;47.200;10.902;2023-03-14T15:47:08;1.67;;;1.17;;